createdAt,value
2022-11-27T00:10:54.285Z,12.50
2022-11-27T00:13:21.941Z,12.40
2022-11-27T00:15:50.015Z,12.30
2022-11-27T00:18:17.852Z,12.40
2022-11-27T00:20:45.501Z,12.40
2022-11-27T00:23:13.149Z,12.40
2022-11-27T00:25:40.929Z,12.30
2022-11-27T00:28:08.549Z,12.30
2022-11-27T00:30:36.098Z,12.30
2022-11-27T00:33:04.004Z,12.30
2022-11-27T00:35:31.610Z,12.30
2022-11-27T00:37:59.120Z,12.30
2022-11-27T00:40:26.517Z,12.30
2022-11-27T00:42:54.006Z,12.30
2022-11-27T00:45:21.459Z,12.20
2022-11-27T00:47:49.028Z,12.20
2022-11-27T00:50:16.654Z,12.20
2022-11-27T00:52:44.071Z,12.20
2022-11-27T00:55:12.713Z,12.10
2022-11-27T00:57:40.145Z,12.10
2022-11-27T01:00:08.191Z,12.10
2022-11-27T01:02:36.322Z,12.10
2022-11-27T01:05:04.229Z,12.10
2022-11-27T01:07:32.146Z,12.00
2022-11-27T01:10:00.115Z,12.00
2022-11-27T01:12:27.847Z,12.00
2022-11-27T01:14:55.289Z,12.00
2022-11-27T01:17:22.975Z,12.00
2022-11-27T01:19:50.710Z,11.90
2022-11-27T01:22:18.381Z,11.90
2022-11-27T01:24:46.249Z,11.80
2022-11-27T01:27:15.036Z,11.90
2022-11-27T01:29:42.641Z,11.90
2022-11-27T01:32:10.103Z,11.90
2022-11-27T01:34:37.927Z,11.90
2022-11-27T01:37:05.775Z,11.90
2022-11-27T01:39:33.588Z,11.90
2022-11-27T01:42:01.291Z,11.90
2022-11-27T01:44:28.894Z,11.90
2022-11-27T01:47:20.901Z,11.90
2022-11-27T01:49:53.294Z,11.90
2022-11-27T01:52:29.789Z,11.90
2022-11-27T01:55:04.468Z,11.90
2022-11-27T01:57:41.135Z,11.90
2022-11-27T02:00:13.137Z,11.90
2022-11-27T02:02:42.331Z,11.90
2022-11-27T02:05:12.637Z,11.90
2022-11-27T02:07:40.927Z,11.90
2022-11-27T02:10:08.850Z,11.90
2022-11-27T02:12:53.288Z,11.90
2022-11-27T02:15:31.979Z,11.90
2022-11-27T02:18:33.321Z,12.00
2022-11-27T02:21:30.153Z,11.90
2022-11-27T02:24:22.500Z,11.90
2022-11-27T02:27:27.117Z,11.90
2022-11-27T02:29:59.549Z,12.00
2022-11-27T02:32:38.194Z,12.00
2022-11-27T02:35:43.605Z,12.00
2022-11-27T02:38:23.091Z,12.00
2022-11-27T02:41:00.598Z,12.00
2022-11-27T02:43:36.724Z,12.00
2022-11-27T02:46:07.052Z,12.00
2022-11-27T02:48:40.821Z,12.00
2022-11-27T02:51:09.010Z,12.10
2022-11-27T02:53:43.050Z,12.10
2022-11-27T02:56:16.662Z,12.10
2022-11-27T02:58:46.931Z,12.20
2022-11-27T03:01:16.151Z,12.10
2022-11-27T03:03:58.204Z,12.10
2022-11-27T03:06:30.979Z,12.10
2022-11-27T03:09:13.206Z,12.10
2022-11-27T03:11:41.158Z,12.20
2022-11-27T03:14:10.565Z,12.20
2022-11-27T03:17:06.467Z,12.20
2022-11-27T03:19:45.894Z,12.20
2022-11-27T03:22:13.710Z,12.20
2022-11-27T03:24:41.784Z,12.30
2022-11-27T03:27:12.132Z,12.30
2022-11-27T03:29:53.617Z,12.30
2022-11-27T03:32:21.620Z,12.30
2022-11-27T03:34:49.772Z,12.40
2022-11-27T03:37:17.555Z,12.40
2022-11-27T03:39:45.774Z,12.40
2022-11-27T03:42:23.109Z,12.40
2022-11-27T03:45:25.034Z,12.40
2022-11-27T03:47:58.522Z,12.50
2022-11-27T03:50:48.582Z,12.50
2022-11-27T03:53:18.921Z,12.50
2022-11-27T03:56:03.193Z,12.50
2022-11-27T03:59:01.908Z,12.50
2022-11-27T04:01:31.070Z,12.60
2022-11-27T04:03:58.983Z,12.60
2022-11-27T04:06:26.732Z,12.60
2022-11-27T04:08:54.834Z,12.60
2022-11-27T04:11:22.332Z,12.60
2022-11-27T04:13:52.134Z,12.70
2022-11-27T04:16:19.840Z,12.70
2022-11-27T04:18:47.623Z,12.70
2022-11-27T04:21:17.018Z,12.70
2022-11-27T04:23:45.252Z,12.70
2022-11-27T04:26:13.250Z,12.70
2022-11-27T04:28:40.890Z,12.70
2022-11-27T04:31:10.979Z,12.80
2022-11-27T04:33:39.172Z,12.80
2022-11-27T04:36:07.133Z,12.90
2022-11-27T04:38:34.869Z,12.80
2022-11-27T04:41:02.685Z,12.80
2022-11-27T04:43:30.196Z,12.80
2022-11-27T04:45:57.847Z,12.80
2022-11-27T04:48:25.841Z,12.80
2022-11-27T04:50:55.349Z,12.80
2022-11-27T04:53:22.975Z,12.90
2022-11-27T04:55:52.456Z,12.90
2022-11-27T04:58:20.494Z,12.80
2022-11-27T05:00:48.215Z,12.90
2022-11-27T05:03:16.523Z,12.90
2022-11-27T05:05:44.760Z,12.90
2022-11-27T05:08:12.390Z,12.90
2022-11-27T05:10:39.965Z,12.90
2022-11-27T05:13:07.503Z,13.00
2022-11-27T05:15:35.592Z,13.00
2022-11-27T05:18:03.387Z,13.00
2022-11-27T05:20:31.199Z,13.00
2022-11-27T05:22:59.451Z,13.00
2022-11-27T05:25:27.103Z,13.00
2022-11-27T05:27:54.660Z,13.00
2022-11-27T05:30:22.225Z,13.00
2022-11-27T05:32:49.911Z,13.00
2022-11-27T05:35:17.679Z,13.10
2022-11-27T05:37:45.340Z,13.10
2022-11-27T05:40:13.453Z,13.10
2022-11-27T05:42:41.302Z,13.10
2022-11-27T05:45:09.365Z,13.10
2022-11-27T05:47:37.085Z,13.10
2022-11-27T05:50:04.973Z,13.10
2022-11-27T05:52:32.642Z,13.10
2022-11-27T05:55:00.522Z,13.20
2022-11-27T05:57:28.358Z,13.20
2022-11-27T05:59:55.834Z,13.20
2022-11-27T06:02:28.989Z,13.20
2022-11-27T06:04:57.544Z,13.20
2022-11-27T06:07:28.122Z,13.20
2022-11-27T06:09:55.508Z,13.20
2022-11-27T06:12:22.899Z,13.10
2022-11-27T06:14:50.428Z,13.10
2022-11-27T06:17:17.876Z,13.10
2022-11-27T06:19:45.506Z,13.10
2022-11-27T06:22:12.837Z,13.10
2022-11-27T06:24:40.547Z,13.10
2022-11-27T06:27:08.844Z,13.10
2022-11-27T06:29:37.015Z,13.10
2022-11-27T06:32:05.173Z,13.10
2022-11-27T06:34:32.713Z,13.10
2022-11-27T06:37:00.014Z,13.10
2022-11-27T06:39:27.427Z,13.10
2022-11-27T06:41:54.925Z,13.10
2022-11-27T06:44:22.408Z,13.10
2022-11-27T06:46:50.435Z,13.20
2022-11-27T06:49:20.788Z,13.10
2022-11-27T06:51:49.260Z,13.20
2022-11-27T06:54:16.817Z,13.20
2022-11-27T06:56:44.251Z,13.20
2022-11-27T06:59:14.677Z,13.20
2022-11-27T07:01:42.869Z,13.20
2022-11-27T07:04:14.553Z,13.20
2022-11-27T07:06:42.770Z,13.20
2022-11-27T07:09:10.330Z,13.20
2022-11-27T07:11:38.497Z,13.20
2022-11-27T07:14:06.139Z,13.20
2022-11-27T07:16:35.044Z,13.20
2022-11-27T07:19:04.266Z,13.20
2022-11-27T07:21:31.936Z,13.20
2022-11-27T07:24:00.529Z,13.30
2022-11-27T07:26:29.126Z,13.30
2022-11-27T07:28:56.644Z,13.30
2022-11-27T07:31:26.804Z,13.30
2022-11-27T07:33:54.207Z,13.30
2022-11-27T07:36:25.441Z,13.30
2022-11-27T07:38:52.918Z,13.30
2022-11-27T07:41:20.620Z,13.30
2022-11-27T07:43:48.197Z,13.30
2022-11-27T07:46:20.804Z,13.30
2022-11-27T07:48:48.405Z,13.30
2022-11-27T07:51:17.334Z,13.30
2022-11-27T07:53:45.003Z,13.30
2022-11-27T07:56:13.437Z,13.30
2022-11-27T07:58:40.841Z,13.30
2022-11-27T08:01:09.404Z,13.30
2022-11-27T08:03:36.956Z,13.30
2022-11-27T08:06:04.889Z,13.30
2022-11-27T08:08:32.770Z,13.30
2022-11-27T08:11:00.309Z,13.30
2022-11-27T08:13:27.678Z,13.30
2022-11-27T08:15:54.930Z,13.40
2022-11-27T08:18:22.420Z,13.40
2022-11-27T08:20:50.010Z,13.40
2022-11-27T08:23:17.397Z,13.30
2022-11-27T08:25:45.010Z,13.40
2022-11-27T08:28:12.469Z,13.40
2022-11-27T08:30:40.084Z,13.40
2022-11-27T08:33:08.057Z,13.40
2022-11-27T08:35:35.694Z,13.40
2022-11-27T08:38:03.300Z,13.40
2022-11-27T08:40:30.723Z,13.40
2022-11-27T08:42:58.678Z,13.40
2022-11-27T08:45:26.409Z,13.40
2022-11-27T08:47:53.749Z,13.40
2022-11-27T08:50:21.097Z,13.40
2022-11-27T08:52:49.037Z,13.50
2022-11-27T08:55:16.426Z,13.50
2022-11-27T08:57:44.160Z,13.50
2022-11-27T09:00:11.699Z,13.50
2022-11-27T09:02:39.025Z,13.50
2022-11-27T09:05:06.736Z,13.50
2022-11-27T09:07:34.167Z,13.50
2022-11-27T09:10:01.847Z,13.50
2022-11-27T09:12:29.537Z,13.50
2022-11-27T09:14:57.016Z,13.50
2022-11-27T09:17:24.720Z,13.60
2022-11-27T09:19:52.189Z,13.60
2022-11-27T09:22:19.771Z,13.60
2022-11-27T09:24:47.050Z,13.60
2022-11-27T09:27:14.282Z,13.60
2022-11-27T09:29:41.652Z,13.60
2022-11-27T09:32:08.877Z,13.60
2022-11-27T09:34:37.621Z,13.70
2022-11-27T09:37:05.316Z,13.70
2022-11-27T09:39:34.071Z,13.70
2022-11-27T09:42:03.095Z,13.70
2022-11-27T09:44:39.641Z,13.70
2022-11-27T09:47:16.419Z,13.70
2022-11-27T09:49:43.679Z,13.70
2022-11-27T09:52:13.967Z,13.80
2022-11-27T09:54:50.779Z,13.80
2022-11-27T09:57:21.854Z,13.80
2022-11-27T09:59:50.789Z,13.80
2022-11-27T10:02:21.775Z,13.80
2022-11-27T10:05:12.764Z,13.80
2022-11-27T10:07:47.095Z,13.80
2022-11-27T10:10:20.414Z,13.80
2022-11-27T10:12:56.580Z,13.90
2022-11-27T10:15:44.317Z,13.90
2022-11-27T10:18:14.886Z,13.90
2022-11-27T10:20:53.570Z,13.90
2022-11-27T10:23:41.736Z,14.00
2022-11-27T10:26:17.304Z,13.90
2022-11-27T10:28:52.053Z,14.00
2022-11-27T10:31:28.459Z,14.00
2022-11-27T10:34:22.153Z,14.00
2022-11-27T10:36:50.524Z,14.00
2022-11-27T10:39:41.130Z,14.00
2022-11-27T10:42:27.285Z,14.00
2022-11-27T10:45:17.268Z,14.00
2022-11-27T10:47:46.522Z,14.00
2022-11-27T10:50:15.088Z,14.10
2022-11-27T10:52:52.520Z,14.10
2022-11-27T10:55:40.286Z,14.10
2022-11-27T10:58:32.056Z,14.10
2022-11-27T11:01:07.484Z,14.10
2022-11-27T11:03:35.389Z,14.20
2022-11-27T11:06:20.180Z,14.20
2022-11-27T11:08:48.962Z,14.30
2022-11-27T11:11:24.885Z,14.30
2022-11-27T11:13:52.652Z,14.30
2022-11-27T11:16:24.912Z,14.30
2022-11-27T11:18:54.285Z,14.30
2022-11-27T11:21:27.688Z,14.30
2022-11-27T11:24:05.038Z,14.40
2022-11-27T11:26:32.342Z,14.40
2022-11-27T11:29:01.723Z,14.40
2022-11-27T11:31:31.188Z,14.40
2022-11-27T11:34:00.506Z,14.40
2022-11-27T11:36:27.842Z,14.40
2022-11-27T11:38:55.239Z,14.50
2022-11-27T11:41:24.227Z,14.40
2022-11-27T11:43:56.554Z,14.40
2022-11-27T11:46:25.667Z,14.50
2022-11-27T11:48:57.295Z,14.50
2022-11-27T11:51:34.376Z,14.50
2022-11-27T11:54:16.889Z,14.50
2022-11-27T11:56:49.644Z,14.50
2022-11-27T11:59:31.703Z,14.50
2022-11-27T12:02:06.065Z,14.40
2022-11-27T12:05:03.657Z,14.50
2022-11-27T12:07:34.270Z,14.50
2022-11-27T12:10:11.468Z,14.50
2022-11-27T12:12:57.485Z,14.50
2022-11-27T12:15:27.909Z,14.50
2022-11-27T12:17:58.858Z,14.50
2022-11-27T12:20:42.671Z,14.50
2022-11-27T12:23:25.506Z,14.50
2022-11-27T12:25:52.822Z,14.60
2022-11-27T12:28:27.844Z,14.60
2022-11-27T12:31:14.048Z,14.60
2022-11-27T12:33:41.596Z,14.60
2022-11-27T12:36:12.049Z,14.60
2022-11-27T12:38:42.036Z,14.70
2022-11-27T12:41:29.663Z,14.70
2022-11-27T12:44:00.288Z,14.70
2022-11-27T12:46:37.579Z,14.70
2022-11-27T12:49:10.103Z,14.70
2022-11-27T12:51:39.624Z,14.70
2022-11-27T12:54:12.504Z,14.80
2022-11-27T12:56:44.627Z,14.80
2022-11-27T12:59:17.508Z,14.80
2022-11-27T13:01:52.413Z,14.80
2022-11-27T13:04:39.172Z,14.90
2022-11-27T13:07:09.969Z,14.90
2022-11-27T13:09:46.637Z,14.90
2022-11-27T13:12:17.518Z,14.90
2022-11-27T13:14:52.427Z,14.90
2022-11-27T13:17:20.852Z,14.90
2022-11-27T13:19:50.147Z,15.00
2022-11-27T13:22:22.137Z,15.00
2022-11-27T13:24:49.444Z,15.00
2022-11-27T13:27:23.687Z,15.00
2022-11-27T13:29:53.446Z,15.00
2022-11-27T13:32:25.563Z,15.00
2022-11-27T13:34:55.279Z,15.00
2022-11-27T13:37:22.518Z,15.00
2022-11-27T13:39:49.840Z,14.90
2022-11-27T13:42:23.427Z,15.00
2022-11-27T13:44:55.972Z,15.00
2022-11-27T13:47:24.795Z,15.00
2022-11-27T13:50:03.173Z,14.90
2022-11-27T13:52:30.661Z,14.90
2022-11-27T13:54:59.138Z,14.90
2022-11-27T13:57:27.443Z,14.90
2022-11-27T14:00:08.595Z,14.90
2022-11-27T14:02:43.444Z,14.90
2022-11-27T14:05:12.676Z,14.90
2022-11-27T14:07:45.277Z,14.90
2022-11-27T14:10:18.541Z,14.90
2022-11-27T14:13:02.106Z,14.90
2022-11-27T14:15:30.841Z,14.90
2022-11-27T14:18:04.319Z,14.90
2022-11-27T14:20:32.785Z,14.90
2022-11-27T14:23:11.792Z,14.90
2022-11-27T14:25:39.974Z,14.90
2022-11-27T14:28:15.791Z,14.90
2022-11-27T14:30:50.560Z,14.90
2022-11-27T14:33:18.525Z,14.90
2022-11-27T14:35:53.220Z,14.90
2022-11-27T14:38:21.277Z,14.90
2022-11-27T14:40:49.344Z,14.90
2022-11-27T14:43:17.725Z,14.90
2022-11-27T14:45:47.053Z,14.90
2022-11-27T14:48:18.271Z,14.90
2022-11-27T14:50:45.701Z,14.80
2022-11-27T14:53:13.183Z,14.80
2022-11-27T14:55:40.581Z,14.80
2022-11-27T14:58:13.666Z,14.80
2022-11-27T15:00:50.554Z,14.80
2022-11-27T15:03:18.179Z,14.70
2022-11-27T15:05:51.653Z,14.70
2022-11-27T15:08:19.168Z,14.70
2022-11-27T15:10:46.634Z,14.70
2022-11-27T15:13:21.274Z,14.70
2022-11-27T15:15:53.991Z,14.70
2022-11-27T15:18:22.806Z,14.70
2022-11-27T15:20:50.486Z,14.60
2022-11-27T15:23:20.289Z,14.60
2022-11-27T15:25:49.945Z,14.60
2022-11-27T15:28:26.529Z,14.60
2022-11-27T15:30:54.329Z,14.60
2022-11-27T15:33:31.757Z,14.60
2022-11-27T15:36:19.440Z,14.50
2022-11-27T15:38:47.166Z,14.60
2022-11-27T15:41:20.495Z,14.60
2022-11-27T15:43:47.865Z,14.50
2022-11-27T15:46:16.005Z,14.60
2022-11-27T15:48:43.442Z,14.50
2022-11-27T15:51:10.720Z,14.50
2022-11-27T15:53:38.108Z,14.50
2022-11-27T15:56:05.679Z,14.50
2022-11-27T15:58:32.949Z,14.50
2022-11-27T16:01:00.680Z,14.50
2022-11-27T16:03:28.339Z,14.50
2022-11-27T16:05:55.866Z,14.40
2022-11-27T16:08:23.319Z,14.40
2022-11-27T16:10:50.660Z,14.40
2022-11-27T16:13:17.973Z,14.40
2022-11-27T16:15:45.210Z,14.40
2022-11-27T16:18:15.772Z,14.40
2022-11-27T16:20:43.064Z,14.30
2022-11-27T16:23:10.378Z,14.30
2022-11-27T16:25:38.402Z,14.30
2022-11-27T16:28:05.965Z,14.30
2022-11-27T16:30:33.305Z,14.30
2022-11-27T16:33:00.599Z,14.30
2022-11-27T16:35:27.973Z,14.30
2022-11-27T16:37:56.312Z,14.20
2022-11-27T16:40:23.987Z,14.20
2022-11-27T16:42:51.383Z,14.20
2022-11-27T16:45:19.125Z,14.10
2022-11-27T16:47:46.523Z,14.10
2022-11-27T16:50:13.948Z,14.10
2022-11-27T16:52:44.686Z,14.10
2022-11-27T16:55:12.856Z,14.00
2022-11-27T16:57:40.305Z,14.00
2022-11-27T17:00:08.710Z,14.00
2022-11-27T17:02:36.367Z,13.90
2022-11-27T17:05:04.490Z,13.90
2022-11-27T17:07:32.020Z,13.90
2022-11-27T17:09:59.387Z,13.90
2022-11-27T17:12:26.916Z,13.80
2022-11-27T17:16:08.621Z,13.80
2022-11-27T17:18:41.114Z,13.70
2022-11-27T17:21:11.707Z,13.70
2022-11-27T17:23:43.011Z,13.70
2022-11-27T17:26:11.916Z,13.70
2022-11-27T17:28:39.489Z,13.70
2022-11-27T17:31:21.780Z,13.60
2022-11-27T17:33:49.853Z,13.60
2022-11-27T17:36:18.463Z,13.60
2022-11-27T17:38:47.758Z,13.60
2022-11-27T17:41:15.930Z,13.60
2022-11-27T17:43:43.620Z,13.60
2022-11-27T17:46:21.223Z,13.60
2022-11-27T17:48:51.655Z,13.60
2022-11-27T17:51:20.303Z,13.50
2022-11-27T17:53:49.437Z,13.50
2022-11-27T17:56:19.218Z,13.50
2022-11-27T17:58:47.289Z,13.50
2022-11-27T18:01:18.289Z,13.50
2022-11-27T18:03:46.643Z,13.50
2022-11-27T18:06:17.093Z,13.50
2022-11-27T18:08:45.983Z,13.50
2022-11-27T18:11:18.296Z,13.40
2022-11-27T18:13:46.718Z,13.40
2022-11-27T18:16:18.101Z,13.40
2022-11-27T18:18:46.127Z,13.40
2022-11-27T18:21:19.364Z,13.40
2022-11-27T18:27:06.447Z,13.40
2022-11-27T18:29:24.591Z,13.30
2022-11-27T18:31:53.507Z,13.40
2022-11-27T18:34:21.014Z,13.20
2022-11-27T18:36:48.468Z,13.30
2022-11-27T18:39:16.040Z,13.30
2022-11-27T18:41:43.574Z,13.30
2022-11-27T18:44:11.094Z,13.20
2022-11-27T18:46:39.554Z,13.20
2022-11-27T18:49:10.007Z,13.20
2022-11-27T18:51:37.778Z,13.20
2022-11-27T18:54:05.749Z,13.20
2022-11-27T18:56:33.481Z,13.10
2022-11-27T18:59:03.091Z,13.20
2022-11-27T19:01:39.669Z,13.10
2022-11-27T19:04:10.756Z,13.10
2022-11-27T19:06:39.319Z,13.00
2022-11-27T19:09:07.284Z,13.00
2022-11-27T19:11:35.376Z,13.00
2022-11-27T19:14:05.206Z,13.00
2022-11-27T19:16:36.368Z,13.00
2022-11-27T19:19:06.189Z,13.00
2022-11-27T19:21:35.471Z,12.90
2022-11-27T19:24:05.576Z,12.90
2022-11-27T19:26:35.307Z,12.90
2022-11-27T19:29:08.169Z,12.90
2022-11-27T19:31:38.969Z,12.90
2022-11-27T19:34:07.908Z,12.90
2022-11-27T19:36:36.028Z,12.90
2022-11-27T19:39:08.150Z,12.90
2022-11-27T19:41:35.894Z,12.90
2022-11-27T19:44:07.797Z,12.90
2022-11-27T19:46:37.490Z,12.90
2022-11-27T19:49:07.763Z,12.90
2022-11-27T19:51:37.512Z,12.90
2022-11-27T19:54:09.939Z,12.90
2022-11-27T19:56:42.188Z,12.90
2022-11-27T19:59:12.176Z,12.90
2022-11-27T20:01:41.427Z,12.80
2022-11-27T20:04:11.711Z,12.80
2022-11-27T20:06:39.876Z,12.80
2022-11-27T20:09:08.774Z,12.80
2022-11-27T20:11:37.203Z,12.80
2022-11-27T20:14:06.685Z,12.80
2022-11-27T20:16:36.120Z,12.80
2022-11-27T20:19:05.966Z,12.80
2022-11-27T20:21:36.811Z,12.80
2022-11-27T20:24:04.629Z,12.70
2022-11-27T20:26:37.222Z,12.70
2022-11-27T20:29:08.318Z,12.70
2022-11-27T20:31:37.701Z,12.70
2022-11-27T20:34:06.736Z,12.70
2022-11-27T20:36:39.013Z,12.70
2022-11-27T20:39:06.990Z,12.70
2022-11-27T20:41:34.513Z,12.80
2022-11-27T20:44:04.689Z,12.70
2022-11-27T20:46:35.031Z,12.70
2022-11-27T20:49:03.738Z,12.70
2022-11-27T20:51:34.103Z,12.70
2022-11-27T20:54:10.710Z,12.70
2022-11-27T20:56:40.898Z,12.70
2022-11-27T20:59:09.145Z,12.70
2022-11-27T21:01:37.616Z,12.70
2022-11-27T21:04:16.462Z,12.70
2022-11-27T21:06:44.421Z,12.70
2022-11-27T21:09:14.101Z,12.70
2022-11-27T21:11:45.718Z,12.70
2022-11-27T21:14:14.897Z,12.70
2022-11-27T21:16:48.346Z,12.70
2022-11-27T21:19:23.079Z,12.70
2022-11-27T21:21:51.588Z,12.70
2022-11-27T21:24:20.487Z,12.70
2022-11-27T21:26:48.998Z,12.70
2022-11-27T21:29:16.951Z,12.60
2022-11-27T21:31:47.250Z,12.70
2022-11-27T21:34:15.860Z,12.70
2022-11-27T21:36:44.711Z,12.60
2022-11-27T21:39:19.988Z,12.60
2022-11-27T21:41:50.286Z,12.60
2022-11-27T21:44:19.654Z,12.60
2022-11-27T21:46:48.184Z,12.60
2022-11-27T21:49:18.984Z,12.60
2022-11-27T21:51:50.114Z,12.60
2022-11-27T21:54:19.237Z,12.50
2022-11-27T21:56:49.947Z,12.50
2022-11-27T21:59:18.738Z,12.50
2022-11-27T22:01:47.426Z,12.50
2022-11-27T22:04:15.269Z,12.50
2022-11-27T22:06:43.758Z,12.50
2022-11-27T22:09:15.406Z,12.40
2022-11-27T22:11:45.520Z,12.50
2022-11-27T22:14:14.852Z,12.50
2022-11-27T22:16:46.004Z,12.50
2022-11-27T22:19:14.837Z,12.50
2022-11-27T22:21:43.506Z,12.50
2022-11-27T22:24:16.783Z,12.50
2022-11-27T22:26:48.083Z,12.50
2022-11-27T22:29:15.704Z,12.50
2022-11-27T22:31:43.419Z,12.50
2022-11-27T22:34:11.305Z,12.50
2022-11-27T22:36:39.493Z,12.50
2022-11-27T22:39:08.887Z,12.50
2022-11-27T22:41:38.855Z,12.50
2022-11-27T22:44:08.325Z,12.50
2022-11-27T22:46:37.040Z,12.50
2022-11-27T22:49:06.367Z,12.50
2022-11-27T22:51:35.945Z,12.40
2022-11-27T22:54:05.183Z,12.40
2022-11-27T22:56:33.910Z,12.40
2022-11-27T22:59:30.720Z,12.40
2022-11-27T23:01:50.081Z,12.40
2022-11-27T23:04:17.509Z,12.40
2022-11-27T23:06:48.431Z,12.30
2022-11-27T23:09:20.370Z,12.30
2022-11-27T23:11:48.351Z,12.40
2022-11-27T23:14:15.968Z,12.30
2022-11-27T23:16:43.893Z,12.30
2022-11-27T23:19:12.260Z,12.30
2022-11-27T23:21:40.509Z,12.30
2022-11-27T23:24:11.600Z,12.30
2022-11-27T23:26:39.211Z,12.30
2022-11-27T23:29:06.729Z,12.20
2022-11-27T23:31:35.181Z,12.20
2022-11-27T23:34:07.455Z,12.20
2022-11-27T23:36:35.770Z,12.20
2022-11-27T23:39:05.850Z,12.20
2022-11-27T23:41:33.732Z,12.10
2022-11-27T23:44:02.125Z,12.10
2022-11-27T23:46:30.152Z,12.10
2022-11-27T23:48:59.985Z,12.10
2022-11-27T23:51:30.691Z,12.00
2022-11-27T23:53:58.638Z,12.00
2022-11-27T23:56:28.854Z,12.00
2022-11-27T23:58:57.231Z,11.90
